createdAt,value
2023-05-11T00:01:48.681Z,12.50
2023-05-11T00:04:17.336Z,12.50
2023-05-11T00:06:45.994Z,12.50
2023-05-11T00:09:14.409Z,12.50
2023-05-11T00:11:42.804Z,12.50
2023-05-11T00:14:11.175Z,12.50
2023-05-11T00:16:39.580Z,12.58
2023-05-11T00:19:07.981Z,12.60
2023-05-11T00:21:36.690Z,12.68
2023-05-11T00:24:05.593Z,12.70
2023-05-11T00:26:34.077Z,12.70
2023-05-11T00:29:02.515Z,12.70
2023-05-11T00:31:30.955Z,12.80
2023-05-11T00:33:59.294Z,12.80
2023-05-11T00:36:27.638Z,12.80
2023-05-11T00:38:56.625Z,12.80
2023-05-11T00:41:25.593Z,12.80
2023-05-11T00:43:53.987Z,12.82
2023-05-11T00:46:22.564Z,12.80
2023-05-11T00:48:51.282Z,12.80
2023-05-11T00:51:20.893Z,12.80
2023-05-11T00:53:50.860Z,12.80
2023-05-11T00:56:20.193Z,12.80
2023-05-11T00:58:49.202Z,12.80
2023-05-11T01:01:18.913Z,12.80
2023-05-11T01:03:48.049Z,12.80
2023-05-11T01:06:27.899Z,12.80
2023-05-11T01:09:04.217Z,12.82
2023-05-11T01:11:52.401Z,12.80
2023-05-11T01:14:25.857Z,12.80
2023-05-11T01:16:59.386Z,12.80
2023-05-11T01:19:54.168Z,12.72
2023-05-11T01:22:58.738Z,12.70
2023-05-11T01:25:29.974Z,12.60
2023-05-11T01:28:35.291Z,12.56
2023-05-11T01:31:15.597Z,12.50
2023-05-11T01:33:54.295Z,12.50
2023-05-11T01:36:25.983Z,12.50
2023-05-11T01:38:57.752Z,12.50
2023-05-11T01:41:28.422Z,12.40
2023-05-11T01:43:59.739Z,12.40
2023-05-11T01:46:32.806Z,12.40
2023-05-11T01:49:06.485Z,12.40
2023-05-11T01:51:37.918Z,12.40
2023-05-11T01:54:11.611Z,12.44
2023-05-11T01:56:42.225Z,12.50
2023-05-11T01:59:12.867Z,12.50
2023-05-11T02:01:41.649Z,12.50
2023-05-11T02:04:12.119Z,12.48
2023-05-11T02:06:43.804Z,12.40
2023-05-11T02:09:13.465Z,12.40
2023-05-11T02:11:44.041Z,12.30
2023-05-11T02:14:13.252Z,12.20
2023-05-11T02:16:42.256Z,12.20
2023-05-11T02:19:13.925Z,12.02
2023-05-11T02:21:45.056Z,12.00
2023-05-11T02:24:14.818Z,11.94
2023-05-11T02:26:43.298Z,11.90
2023-05-11T02:29:11.829Z,11.80
2023-05-11T02:31:46.898Z,11.80
2023-05-11T02:34:41.591Z,11.80
2023-05-11T02:37:13.763Z,11.90
2023-05-11T02:39:46.429Z,12.00
2023-05-11T02:42:20.183Z,12.00
2023-05-11T02:45:02.612Z,12.04
2023-05-11T02:47:34.916Z,12.00
2023-05-11T02:50:05.139Z,12.00
2023-05-11T02:52:38.265Z,12.00
2023-05-11T02:55:07.451Z,12.00
2023-05-11T02:57:36.050Z,12.00
2023-05-11T03:00:08.552Z,12.00
2023-05-11T03:02:37.252Z,12.10
2023-05-11T03:05:06.741Z,12.06
2023-05-11T03:07:36.382Z,12.00
2023-05-11T03:10:05.347Z,12.00
2023-05-11T03:12:37.814Z,11.90
2023-05-11T03:15:07.929Z,11.80
2023-05-11T03:17:37.472Z,11.80
2023-05-11T03:20:07.821Z,11.70
2023-05-11T03:22:38.130Z,11.72
2023-05-11T03:25:08.377Z,11.74
2023-05-11T03:27:38.196Z,11.80
2023-05-11T03:30:12.820Z,11.74
2023-05-11T03:32:44.287Z,11.80
2023-05-11T03:35:13.051Z,11.80
2023-05-11T03:37:42.953Z,11.90
2023-05-11T03:40:14.482Z,11.94
2023-05-11T03:42:55.575Z,12.00
2023-05-11T03:45:27.644Z,11.90
2023-05-11T03:47:57.209Z,11.80
2023-05-11T03:50:27.446Z,11.80
2023-05-11T03:52:56.366Z,11.70
2023-05-11T03:55:24.959Z,11.60
2023-05-11T03:57:53.366Z,11.52
2023-05-11T04:00:22.959Z,11.52
2023-05-11T04:02:52.720Z,11.60
2023-05-11T04:05:21.232Z,11.60
2023-05-11T04:07:50.969Z,11.60
2023-05-11T04:10:20.975Z,11.62
2023-05-11T04:12:49.370Z,11.60
2023-05-11T04:15:17.845Z,11.60
2023-05-11T04:17:46.218Z,11.60
2023-05-11T04:20:14.670Z,11.60
2023-05-11T04:22:43.485Z,11.50
2023-05-11T04:25:11.994Z,11.50
2023-05-11T04:27:41.037Z,11.50
2023-05-11T04:30:09.768Z,11.50
2023-05-11T04:32:38.239Z,11.50
2023-05-11T04:35:06.805Z,11.50
2023-05-11T04:37:38.442Z,11.50
2023-05-11T04:40:09.267Z,11.50
2023-05-11T04:42:44.382Z,11.50
2023-05-11T04:45:16.778Z,11.50
2023-05-11T04:47:45.321Z,11.50
2023-05-11T04:50:14.357Z,11.50
2023-05-11T04:52:42.768Z,11.40
2023-05-11T04:55:11.463Z,11.40
2023-05-11T04:57:40.023Z,11.30
2023-05-11T05:00:09.511Z,11.20
2023-05-11T05:02:38.150Z,11.18
2023-05-11T05:05:07.728Z,11.20
2023-05-11T05:07:36.076Z,11.20
2023-05-11T05:10:09.024Z,11.30
2023-05-11T05:12:37.510Z,11.20
2023-05-11T05:15:06.944Z,11.20
2023-05-11T05:17:35.655Z,11.20
2023-05-11T05:20:04.974Z,11.22
2023-05-11T05:22:33.976Z,11.24
2023-05-11T05:25:02.340Z,11.30
2023-05-11T05:27:33.413Z,11.40
2023-05-11T05:30:04.126Z,11.50
2023-05-11T05:32:32.676Z,11.60
2023-05-11T05:35:01.207Z,11.60
2023-05-11T05:37:29.738Z,11.60
2023-05-11T05:39:58.251Z,11.60
2023-05-11T05:42:26.982Z,11.66
2023-05-11T05:44:55.654Z,11.70
2023-05-11T05:47:24.254Z,11.80
2023-05-11T05:49:52.661Z,11.90
2023-05-11T05:52:21.173Z,12.00
2023-05-11T05:54:50.116Z,12.00
2023-05-11T05:57:18.715Z,12.10
2023-05-11T05:59:47.308Z,12.24
2023-05-11T06:02:19.043Z,12.30
2023-05-11T06:04:47.772Z,12.30
2023-05-11T06:07:16.447Z,12.32
2023-05-11T06:09:44.861Z,12.40
2023-05-11T06:12:13.292Z,12.40
2023-05-11T06:14:44.227Z,12.42
2023-05-11T06:17:12.752Z,12.50
2023-05-11T06:19:41.391Z,12.50
2023-05-11T06:22:10.080Z,12.52
2023-05-11T06:24:39.294Z,12.54
2023-05-11T06:27:07.647Z,12.60
2023-05-11T06:29:36.260Z,12.60
2023-05-11T06:32:05.038Z,12.60
2023-05-11T06:34:34.311Z,12.66
2023-05-11T06:37:03.293Z,12.70
2023-05-11T06:39:31.704Z,12.72
2023-05-11T06:42:04.196Z,12.80
2023-05-11T06:44:34.716Z,12.80
2023-05-11T06:47:03.238Z,12.90
2023-05-11T06:49:31.713Z,13.00
2023-05-11T06:52:00.305Z,13.00
2023-05-11T06:54:29.063Z,13.10
2023-05-11T06:56:57.511Z,13.10
2023-05-11T06:59:26.347Z,13.20
2023-05-11T07:01:54.887Z,13.30
2023-05-11T07:04:23.478Z,13.32
2023-05-11T07:06:51.858Z,13.40
2023-05-11T07:09:20.209Z,13.40
2023-05-11T07:11:48.594Z,13.50
2023-05-11T07:14:17.086Z,13.50
2023-05-11T07:16:46.769Z,13.50
2023-05-11T07:19:15.241Z,13.60
2023-05-11T07:21:43.560Z,13.56
2023-05-11T07:24:11.997Z,13.60
2023-05-11T07:26:40.381Z,13.70
2023-05-11T07:29:08.781Z,13.70
2023-05-11T07:31:37.573Z,13.70
2023-05-11T07:34:06.036Z,13.70
2023-05-11T07:36:34.648Z,13.70
2023-05-11T07:39:03.104Z,13.68
2023-05-11T07:41:31.681Z,13.60
2023-05-11T07:44:03.146Z,13.70
2023-05-11T07:46:31.568Z,13.80
2023-05-11T07:49:11.295Z,13.90
2023-05-11T07:51:44.629Z,14.00
2023-05-11T07:54:12.957Z,14.04
2023-05-11T07:56:42.090Z,14.10
2023-05-11T07:59:10.549Z,14.16
2023-05-11T08:01:38.973Z,14.20
2023-05-11T08:04:07.889Z,14.30
2023-05-11T08:06:36.305Z,14.40
2023-05-11T08:09:05.177Z,14.40
2023-05-11T08:11:34.741Z,14.44
2023-05-11T08:14:03.749Z,14.50
2023-05-11T08:16:32.560Z,14.50
2023-05-11T08:19:01.046Z,14.50
2023-05-11T08:21:29.577Z,14.50
2023-05-11T08:23:57.953Z,14.50
2023-05-11T08:26:26.387Z,14.54
2023-05-11T08:28:54.715Z,14.60
2023-05-11T08:31:23.166Z,14.70
2023-05-11T08:33:51.580Z,14.70
2023-05-11T08:36:20.180Z,14.70
2023-05-11T08:38:48.763Z,14.80
2023-05-11T08:41:17.193Z,14.90
2023-05-11T08:43:47.185Z,15.00
2023-05-11T08:46:21.785Z,15.10
2023-05-11T08:48:50.859Z,15.18
2023-05-11T08:51:19.345Z,15.10
2023-05-11T08:53:47.772Z,15.20
2023-05-11T08:56:17.472Z,15.30
2023-05-11T08:58:46.929Z,15.36
2023-05-11T09:01:18.073Z,15.42
2023-05-11T09:03:47.482Z,15.50
2023-05-11T09:06:18.027Z,15.50
2023-05-11T09:08:46.718Z,15.54
2023-05-11T09:11:15.269Z,15.56
2023-05-11T09:13:43.744Z,15.50
2023-05-11T09:16:28.789Z,15.50
2023-05-11T09:19:02.563Z,15.60
2023-05-11T09:21:32.043Z,15.78
2023-05-11T09:24:01.081Z,15.90
2023-05-11T09:26:30.001Z,15.82
2023-05-11T09:31:41.958Z,16.00
2023-05-11T09:34:18.145Z,16.10
2023-05-11T09:36:48.804Z,16.10
2023-05-11T09:39:35.166Z,16.00
2023-05-11T09:42:16.131Z,16.04
2023-05-11T09:44:45.883Z,16.10
2023-05-11T09:47:15.609Z,16.10
2023-05-11T09:49:46.047Z,16.06
2023-05-11T09:52:18.948Z,16.06
2023-05-11T09:54:50.987Z,16.00
2023-05-11T09:57:27.848Z,16.00
2023-05-11T09:59:57.897Z,15.92
2023-05-11T10:02:31.326Z,15.90
2023-05-11T10:05:01.770Z,15.90
2023-05-11T10:07:35.121Z,15.90
2023-05-11T10:10:06.546Z,15.90
2023-05-11T10:12:38.607Z,16.04
2023-05-11T10:15:10.832Z,16.00
2023-05-11T10:17:39.606Z,16.10
2023-05-11T10:20:09.052Z,16.20
2023-05-11T10:22:37.935Z,16.20
2023-05-11T10:25:08.036Z,16.32
2023-05-11T10:27:37.582Z,16.40
2023-05-11T10:30:10.117Z,16.40
2023-05-11T10:32:39.303Z,16.40
2023-05-11T10:35:08.296Z,16.46
2023-05-11T10:37:36.665Z,16.50
2023-05-11T10:40:06.680Z,16.50
2023-05-11T10:43:02.561Z,16.60
2023-05-11T10:46:30.276Z,16.70
2023-05-11T10:49:14.761Z,16.74
2023-05-11T10:51:59.247Z,16.76
2023-05-11T10:54:38.110Z,16.80
2023-05-11T10:57:42.230Z,16.70
2023-05-11T11:00:43.764Z,16.70
2023-05-11T11:03:13.320Z,16.72
2023-05-11T11:05:44.185Z,16.80
2023-05-11T11:08:12.710Z,16.90
2023-05-11T11:10:49.617Z,16.90
2023-05-11T11:13:20.329Z,16.90
2023-05-11T11:15:54.792Z,16.90
2023-05-11T11:18:35.982Z,17.00
2023-05-11T11:21:04.824Z,17.06
2023-05-11T11:23:42.276Z,17.10
2023-05-11T11:26:15.592Z,17.20
2023-05-11T11:29:00.848Z,17.20
2023-05-11T11:31:34.533Z,17.20
2023-05-11T11:34:27.962Z,17.20
2023-05-11T11:36:56.372Z,17.20
2023-05-11T11:39:45.089Z,17.18
2023-05-11T11:42:18.701Z,17.20
2023-05-11T11:44:47.263Z,17.20
2023-05-11T11:47:20.265Z,17.20
2023-05-11T11:49:51.357Z,17.20
2023-05-11T11:52:29.084Z,17.20
2023-05-11T11:55:01.775Z,17.10
2023-05-11T11:57:30.260Z,17.08
2023-05-11T12:00:11.569Z,17.10
2023-05-11T12:02:45.101Z,17.16
2023-05-11T12:05:23.473Z,17.20
2023-05-11T12:07:53.581Z,17.36
2023-05-11T12:10:23.254Z,17.40
2023-05-11T12:12:59.295Z,17.50
2023-05-11T12:15:34.689Z,17.50
2023-05-11T12:18:03.589Z,17.50
2023-05-11T12:20:33.124Z,17.60
2023-05-11T12:25:30.192Z,17.62
2023-05-11T12:28:00.545Z,17.70
2023-05-11T12:30:31.441Z,17.66
2023-05-11T12:33:01.462Z,17.66
2023-05-11T12:35:34.433Z,17.70
2023-05-11T12:38:02.987Z,17.70
2023-05-11T12:40:32.085Z,17.60
2023-05-11T12:43:01.069Z,17.50
2023-05-11T12:45:30.201Z,17.50
2023-05-11T12:47:58.886Z,17.44
2023-05-11T12:50:27.397Z,17.50
2023-05-11T12:53:17.774Z,17.50
2023-05-11T12:55:57.545Z,17.50
2023-05-11T12:58:26.267Z,17.44
2023-05-11T13:00:57.068Z,17.44
2023-05-11T13:03:30.848Z,17.40
2023-05-11T13:06:13.007Z,17.32
2023-05-11T13:08:46.641Z,17.36
2023-05-11T13:11:24.897Z,17.32
2023-05-11T13:13:55.150Z,17.32
2023-05-11T13:16:32.086Z,17.32
2023-05-11T13:19:02.845Z,17.40
2023-05-11T13:21:33.673Z,17.40
2023-05-11T13:24:05.239Z,17.42
2023-05-11T13:26:33.571Z,17.50
2023-05-11T13:29:10.736Z,17.58
2023-05-11T13:31:51.039Z,17.60
2023-05-11T13:34:20.778Z,17.60
2023-05-11T13:36:49.425Z,17.52
2023-05-11T13:39:17.862Z,17.50
2023-05-11T13:41:46.262Z,17.40
2023-05-11T13:44:14.807Z,17.28
2023-05-11T13:46:43.414Z,17.10
2023-05-11T13:49:12.325Z,17.02
2023-05-11T13:51:40.751Z,17.00
2023-05-11T13:54:09.174Z,16.90
2023-05-11T13:56:37.548Z,16.90
2023-05-11T13:59:06.045Z,16.90
2023-05-11T14:01:34.411Z,16.88
2023-05-11T14:04:02.787Z,16.90
2023-05-11T14:06:33.860Z,16.86
2023-05-11T14:09:02.158Z,16.80
2023-05-11T14:11:30.592Z,16.80
2023-05-11T14:13:58.861Z,16.74
2023-05-11T14:16:27.156Z,16.70
2023-05-11T14:18:55.611Z,16.70
2023-05-11T14:21:24.231Z,16.70
2023-05-11T14:24:10.004Z,16.76
2023-05-11T14:26:41.263Z,16.80
2023-05-11T14:29:09.656Z,16.72
2023-05-11T14:31:38.529Z,16.74
2023-05-11T14:34:06.900Z,16.70
2023-05-11T14:36:35.390Z,16.70
2023-05-11T14:39:04.166Z,16.70
2023-05-11T14:41:32.582Z,16.66
2023-05-11T14:44:00.952Z,16.60
2023-05-11T14:46:29.430Z,16.60
2023-05-11T14:48:57.778Z,16.60
2023-05-11T14:51:26.074Z,16.64
2023-05-11T14:53:54.512Z,16.60
2023-05-11T14:56:23.654Z,16.60
2023-05-11T14:58:51.950Z,16.60
2023-05-11T15:01:20.454Z,16.60
2023-05-11T15:03:48.778Z,16.50
2023-05-11T15:06:21.582Z,16.50
2023-05-11T15:08:51.069Z,16.52
2023-05-11T15:11:19.523Z,16.50
2023-05-11T15:13:47.895Z,16.50
2023-05-11T15:16:16.396Z,16.50
2023-05-11T15:18:44.958Z,16.50
2023-05-11T15:21:13.394Z,16.50
2023-05-11T15:23:41.717Z,16.48
2023-05-11T15:26:10.225Z,16.40
2023-05-11T15:28:38.484Z,16.40
2023-05-11T15:31:06.803Z,16.40
2023-05-11T15:33:35.160Z,16.40
2023-05-11T15:36:03.638Z,16.38
2023-05-11T15:38:31.938Z,16.38
2023-05-11T15:41:00.307Z,16.40
2023-05-11T15:43:28.671Z,16.40
2023-05-11T15:45:57.054Z,16.40
2023-05-11T15:48:26.081Z,16.40
2023-05-11T15:50:54.894Z,16.40
2023-05-11T15:53:23.314Z,16.40
2023-05-11T15:55:53.765Z,16.30
2023-05-11T15:58:22.302Z,16.30
2023-05-11T16:00:50.791Z,16.30
2023-05-11T16:03:20.132Z,16.30
2023-05-11T16:05:48.667Z,16.30
2023-05-11T16:08:17.625Z,16.28
2023-05-11T16:10:46.213Z,16.20
2023-05-11T16:13:14.506Z,16.20
2023-05-11T16:15:42.873Z,16.20
2023-05-11T16:18:11.596Z,16.20
2023-05-11T16:20:39.996Z,16.20
2023-05-11T16:23:08.459Z,16.20
2023-05-11T16:25:36.810Z,16.18
2023-05-11T16:28:05.386Z,16.10
2023-05-11T16:30:33.657Z,16.10
2023-05-11T16:33:01.967Z,16.10
2023-05-11T16:35:31.050Z,16.10
2023-05-11T16:37:59.982Z,16.10
2023-05-11T16:40:28.339Z,16.10
2023-05-11T16:42:56.772Z,16.10
2023-05-11T16:45:25.133Z,16.10
2023-05-11T16:47:53.776Z,16.10
2023-05-11T16:50:22.422Z,16.10
2023-05-11T16:52:50.978Z,16.10
2023-05-11T16:55:20.067Z,16.10
2023-05-11T16:57:48.505Z,16.08
2023-05-11T17:00:17.251Z,16.08
2023-05-11T17:02:46.488Z,16.08
2023-05-11T17:05:15.913Z,16.10
2023-05-11T17:07:46.985Z,16.06
2023-05-11T17:10:15.562Z,16.06
2023-05-11T17:12:43.901Z,16.00
2023-05-11T17:15:12.817Z,16.00
2023-05-11T17:17:41.348Z,16.00
2023-05-11T17:20:10.405Z,16.00
2023-05-11T17:22:38.870Z,16.00
2023-05-11T17:25:07.622Z,15.98
2023-05-11T17:27:37.079Z,15.94
2023-05-11T17:30:06.203Z,15.92
2023-05-11T17:32:34.795Z,15.90
2023-05-11T17:35:04.410Z,15.90
2023-05-11T17:37:32.977Z,15.90
2023-05-11T17:40:01.448Z,15.84
2023-05-11T17:42:31.037Z,15.80
2023-05-11T17:44:59.368Z,15.80
2023-05-11T17:47:27.749Z,15.80
2023-05-11T17:49:56.054Z,15.72
2023-05-11T17:52:25.898Z,15.70
2023-05-11T17:54:54.160Z,15.70
2023-05-11T17:57:23.833Z,15.60
2023-05-11T17:59:52.250Z,15.52
2023-05-11T18:02:20.665Z,15.50
2023-05-11T18:04:49.087Z,15.46
2023-05-11T18:07:17.348Z,15.40
2023-05-11T18:09:45.646Z,15.40
2023-05-11T18:12:14.029Z,15.40
2023-05-11T18:14:42.828Z,15.40
2023-05-11T18:17:11.176Z,15.40
2023-05-11T18:19:39.892Z,15.30
2023-05-11T18:22:08.152Z,15.30
2023-05-11T18:24:36.399Z,15.22
2023-05-11T18:27:05.024Z,15.20
2023-05-11T18:29:33.461Z,15.12
2023-05-11T18:32:01.932Z,15.10
2023-05-11T18:34:30.424Z,15.00
2023-05-11T18:36:58.705Z,15.00
2023-05-11T18:39:27.218Z,15.00
2023-05-11T18:41:55.626Z,15.00
2023-05-11T18:44:24.115Z,14.90
2023-05-11T18:46:52.475Z,14.88
2023-05-11T18:49:21.097Z,14.80
2023-05-11T18:51:49.465Z,14.80
2023-05-11T18:54:17.819Z,14.74
2023-05-11T18:56:46.451Z,14.70
2023-05-11T18:59:14.856Z,14.70
2023-05-11T19:01:48.138Z,14.70
2023-05-11T19:04:20.079Z,14.70
2023-05-11T19:06:49.064Z,14.66
2023-05-11T19:09:17.655Z,14.60
2023-05-11T19:11:45.993Z,14.54
2023-05-11T19:14:15.856Z,14.50
2023-05-11T19:16:44.165Z,14.40
2023-05-11T19:19:12.923Z,14.40
2023-05-11T19:21:42.668Z,14.36
2023-05-11T19:24:11.822Z,14.30
2023-05-11T19:26:40.372Z,14.20
2023-05-11T19:29:09.758Z,14.16
2023-05-11T19:31:38.212Z,14.10
2023-05-11T19:34:06.986Z,14.10
2023-05-11T19:36:35.529Z,14.10
2023-05-11T19:39:04.587Z,14.02
2023-05-11T19:41:33.375Z,14.00
2023-05-11T19:44:02.862Z,13.96
2023-05-11T19:46:31.360Z,13.90
2023-05-11T19:48:59.740Z,13.86
2023-05-11T19:51:28.188Z,13.86
2023-05-11T19:53:56.616Z,13.80
2023-05-11T19:56:24.932Z,13.80
2023-05-11T19:58:53.343Z,13.90
2023-05-11T20:01:21.630Z,13.80
2023-05-11T20:03:50.038Z,13.80
2023-05-11T20:06:19.410Z,13.80
2023-05-11T20:08:48.929Z,13.80
2023-05-11T20:11:18.092Z,13.80
2023-05-11T20:13:47.922Z,13.74
2023-05-11T20:16:16.434Z,13.70
2023-05-11T20:18:44.816Z,13.72
2023-05-11T20:21:14.569Z,13.80
2023-05-11T20:23:42.935Z,13.80
2023-05-11T20:26:11.310Z,13.84
2023-05-11T20:28:39.839Z,13.80
2023-05-11T20:31:09.678Z,13.88
2023-05-11T20:36:09.585Z,13.90
2023-05-11T20:38:37.893Z,13.90
2023-05-11T20:41:06.261Z,13.94
2023-05-11T20:43:34.591Z,13.94
2023-05-11T20:46:04.044Z,13.96
2023-05-11T20:48:40.542Z,13.92
2023-05-11T20:51:09.639Z,13.94
2023-05-11T20:53:38.095Z,13.90
2023-05-11T20:56:06.920Z,13.90
2023-05-11T20:58:35.333Z,13.90
2023-05-11T21:01:03.777Z,13.86
2023-05-11T21:03:32.210Z,13.80
2023-05-11T21:06:00.858Z,13.70
2023-05-11T21:08:29.159Z,13.60
2023-05-11T21:10:57.498Z,13.50
2023-05-11T21:13:25.853Z,13.42
2023-05-11T21:15:54.147Z,13.40
2023-05-11T21:18:22.438Z,13.40
2023-05-11T21:20:51.168Z,13.40
2023-05-11T21:23:19.516Z,13.40
2023-05-11T21:25:52.735Z,13.40
2023-05-11T21:28:21.250Z,13.50
2023-05-11T21:30:50.197Z,13.50
2023-05-11T21:33:19.147Z,13.50
2023-05-11T21:35:47.978Z,13.50
2023-05-11T21:38:17.407Z,13.50
2023-05-11T21:40:51.505Z,13.50
2023-05-11T21:43:20.279Z,13.50
2023-05-11T21:45:50.097Z,13.50
2023-05-11T21:48:18.611Z,13.50
2023-05-11T21:50:52.077Z,13.40
2023-05-11T21:53:20.809Z,13.40
2023-05-11T21:55:49.733Z,13.40
2023-05-11T21:58:18.132Z,13.40
2023-05-11T22:00:46.668Z,13.40
2023-05-11T22:03:15.255Z,13.40
2023-05-11T22:05:43.570Z,13.40
2023-05-11T22:08:15.277Z,13.40
2023-05-11T22:10:44.061Z,13.30
2023-05-11T22:13:12.539Z,13.30
2023-05-11T22:15:41.459Z,13.34
2023-05-11T22:18:09.842Z,13.40
2023-05-11T22:20:38.188Z,13.40
2023-05-11T22:23:06.471Z,13.40
2023-05-11T22:25:34.727Z,13.40
2023-05-11T22:28:02.965Z,13.40
2023-05-11T22:30:31.343Z,13.40
2023-05-11T22:32:59.659Z,13.40
2023-05-11T22:35:28.164Z,13.40
2023-05-11T22:37:56.747Z,13.40
2023-05-11T22:40:25.060Z,13.40
2023-05-11T22:42:53.329Z,13.38
2023-05-11T22:45:21.750Z,13.40
2023-05-11T22:47:50.304Z,13.40
2023-05-11T22:50:18.811Z,13.40
2023-05-11T22:52:47.552Z,13.40
2023-05-11T22:55:16.070Z,13.40
2023-05-11T22:57:44.489Z,13.40
2023-05-11T23:00:13.652Z,13.34
2023-05-11T23:02:42.290Z,13.32
2023-05-11T23:05:10.880Z,13.30
2023-05-11T23:07:39.458Z,13.30
2023-05-11T23:10:08.166Z,13.20
2023-05-11T23:12:36.558Z,13.20
2023-05-11T23:15:05.432Z,13.20
2023-05-11T23:17:33.814Z,13.12
2023-05-11T23:20:02.920Z,13.12
2023-05-11T23:22:31.189Z,13.10
2023-05-11T23:25:00.576Z,13.10
2023-05-11T23:27:28.846Z,13.08
2023-05-11T23:29:57.102Z,13.06
2023-05-11T23:32:25.666Z,13.00
2023-05-11T23:34:53.991Z,13.00
2023-05-11T23:37:22.457Z,13.00
2023-05-11T23:39:50.842Z,13.00
2023-05-11T23:42:19.631Z,13.00
2023-05-11T23:44:47.988Z,13.00
2023-05-11T23:47:16.388Z,12.90
2023-05-11T23:49:44.849Z,12.88
2023-05-11T23:52:13.164Z,12.88
2023-05-11T23:54:41.416Z,12.80
2023-05-11T23:57:09.729Z,12.80
2023-05-11T23:59:37.946Z,12.80
